createdAt,value
2019-05-28T00:00:09.641Z,16.44
2019-05-28T00:02:38.881Z,16.48
2019-05-28T00:05:08.327Z,16.44
2019-05-28T00:07:37.574Z,16.43
2019-05-28T00:10:08.535Z,16.49
2019-05-28T00:12:37.723Z,16.48
2019-05-28T00:15:08.233Z,16.45
2019-05-28T00:17:38.384Z,16.34
2019-05-28T00:20:08.403Z,16.33
2019-05-28T00:22:37.580Z,16.22
2019-05-28T00:25:07.155Z,16.32
2019-05-28T00:27:36.291Z,16.40
2019-05-28T00:30:19.032Z,16.44
2019-05-28T00:32:38.191Z,16.46
2019-05-28T00:35:07.806Z,16.46
2019-05-28T00:37:36.976Z,16.43
2019-05-28T00:40:06.491Z,16.42
2019-05-28T00:42:35.699Z,16.37
2019-05-28T00:45:07.031Z,16.38
2019-05-28T00:47:36.211Z,16.36
2019-05-28T00:50:09.774Z,16.36
2019-05-28T00:52:39.032Z,16.17
2019-05-28T00:55:09.972Z,16.25
2019-05-28T00:57:42.217Z,16.33
2019-05-28T01:00:11.830Z,16.34
2019-05-28T01:02:41.393Z,16.27
2019-05-28T01:05:11.030Z,16.23
2019-05-28T01:07:40.239Z,16.21
2019-05-28T01:10:10.324Z,16.02
2019-05-28T01:12:39.519Z,16.15
2019-05-28T01:15:09.251Z,16.22
2019-05-28T01:17:38.600Z,16.26
2019-05-28T01:20:08.546Z,16.29
2019-05-28T01:22:37.714Z,16.30
2019-05-28T01:25:07.734Z,16.32
2019-05-28T01:27:36.911Z,16.32
2019-05-28T01:30:07.548Z,16.32
2019-05-28T01:32:36.730Z,16.31
2019-05-28T01:35:09.191Z,16.26
2019-05-28T01:37:38.369Z,15.99
2019-05-28T01:40:07.792Z,16.04
2019-05-28T01:42:36.985Z,16.16
2019-05-28T01:45:07.505Z,16.22
2019-05-28T01:47:37.080Z,16.24
2019-05-28T01:50:08.043Z,16.25
2019-05-28T01:52:37.290Z,16.05
2019-05-28T01:55:09.987Z,15.93
2019-05-28T01:57:39.168Z,15.89
2019-05-28T02:00:09.294Z,15.96
2019-05-28T02:02:38.480Z,16.04
2019-05-28T02:05:08.862Z,15.85
2019-05-28T02:07:38.055Z,15.99
2019-05-28T02:10:07.772Z,16.06
2019-05-28T02:12:37.049Z,16.10
2019-05-28T02:15:08.370Z,15.97
2019-05-28T02:17:37.598Z,15.95
2019-05-28T02:20:09.283Z,15.75
2019-05-28T02:22:38.671Z,15.88
2019-05-28T02:25:09.314Z,15.98
2019-05-28T02:27:38.551Z,16.07
2019-05-28T02:30:13.585Z,16.07
2019-05-28T02:32:42.762Z,16.06
2019-05-28T02:35:12.678Z,15.94
2019-05-28T02:37:41.853Z,15.86
2019-05-28T02:40:12.065Z,15.88
2019-05-28T02:42:41.256Z,15.85
2019-05-28T02:45:11.392Z,15.78
2019-05-28T02:47:40.565Z,15.80
2019-05-28T02:50:11.098Z,15.83
2019-05-28T02:52:40.767Z,15.65
2019-05-28T02:55:10.907Z,15.73
2019-05-28T02:57:42.804Z,15.81
2019-05-28T03:00:17.181Z,15.83
2019-05-28T03:02:49.194Z,15.84
2019-05-28T03:05:18.612Z,15.79
2019-05-28T03:07:48.329Z,15.74
2019-05-28T03:11:00.340Z,15.85
2019-05-28T03:13:06.347Z,15.86
2019-05-28T03:15:38.615Z,15.86
2019-05-28T03:18:12.353Z,15.86
2019-05-28T03:20:42.936Z,15.86
2019-05-28T03:23:13.159Z,15.85
2019-05-28T03:25:42.576Z,15.85
2019-05-28T03:28:11.942Z,15.67
2019-05-28T03:30:42.212Z,15.54
2019-05-28T03:33:11.459Z,15.41
2019-05-28T03:35:42.613Z,15.51
2019-05-28T03:38:12.529Z,15.56
2019-05-28T03:40:46.087Z,15.60
2019-05-28T03:43:15.674Z,15.60
2019-05-28T03:45:45.204Z,15.60
2019-05-28T03:48:14.645Z,15.66
2019-05-28T03:50:43.826Z,15.73
2019-05-28T03:53:13.039Z,15.75
2019-05-28T03:55:42.213Z,14.84
2019-05-28T03:58:11.393Z,14.76
2019-05-28T04:00:40.643Z,14.32
2019-05-28T04:03:11.097Z,14.19
2019-05-28T04:05:40.289Z,14.17
2019-05-28T04:08:09.572Z,14.16
2019-05-28T04:10:38.812Z,14.20
2019-05-28T04:13:07.983Z,14.08
2019-05-28T04:15:37.096Z,14.22
2019-05-28T04:18:06.296Z,14.38
2019-05-28T04:20:35.505Z,14.16
2019-05-28T04:23:07.640Z,14.15
2019-05-28T04:25:36.822Z,14.11
2019-05-28T04:28:06.062Z,14.29
2019-05-28T04:30:35.252Z,14.07
2019-05-28T04:33:04.428Z,14.06
2019-05-28T04:35:33.601Z,14.14
2019-05-28T04:38:04.653Z,14.33
2019-05-28T04:40:33.909Z,14.21
2019-05-28T04:43:03.186Z,14.34
2019-05-28T04:45:32.399Z,14.32
2019-05-28T04:48:01.593Z,14.41
2019-05-28T04:50:30.702Z,14.48
2019-05-28T04:52:59.873Z,14.47
2019-05-28T04:55:29.112Z,14.50
2019-05-28T04:57:58.222Z,14.47
2019-05-28T05:00:27.451Z,14.09
2019-05-28T05:02:59.929Z,13.89
2019-05-28T05:05:27.570Z,14.14
2019-05-28T05:07:56.796Z,14.32
2019-05-28T05:10:26.357Z,14.37
2019-05-28T05:12:55.562Z,14.40
2019-05-28T05:15:24.834Z,14.38
2019-05-28T05:17:54.030Z,14.20
2019-05-28T05:20:23.234Z,13.85
2019-05-28T05:22:52.416Z,14.00
2019-05-28T05:25:21.926Z,14.21
2019-05-28T05:27:51.140Z,14.30
2019-05-28T05:30:20.327Z,14.40
2019-05-28T05:32:49.580Z,14.40
2019-05-28T05:35:19.406Z,14.48
2019-05-28T05:37:48.590Z,14.45
2019-05-28T05:40:18.318Z,14.51
2019-05-28T05:42:47.651Z,14.54
2019-05-28T05:45:17.272Z,14.53
2019-05-28T05:47:46.656Z,14.52
2019-05-28T05:50:16.067Z,14.32
2019-05-28T05:52:45.315Z,14.34
2019-05-28T05:55:14.769Z,14.43
2019-05-28T05:57:43.942Z,14.45
2019-05-28T06:00:14.885Z,14.40
2019-05-28T06:02:44.049Z,14.49
2019-05-28T06:05:13.418Z,14.48
2019-05-28T06:07:42.663Z,14.51
2019-05-28T06:10:12.071Z,14.55
2019-05-28T06:12:41.284Z,14.53
2019-05-28T06:15:10.937Z,14.35
2019-05-28T06:17:40.153Z,14.40
2019-05-28T06:20:10.687Z,14.26
2019-05-28T06:22:40.186Z,14.27
2019-05-28T06:25:09.614Z,14.21
2019-05-28T06:27:39.079Z,14.13
2019-05-28T06:30:08.900Z,14.03
2019-05-28T06:32:38.706Z,13.93
2019-05-28T06:35:08.298Z,14.02
2019-05-28T06:37:37.483Z,13.90
2019-05-28T06:40:08.803Z,13.81
2019-05-28T06:42:39.714Z,13.79
2019-05-28T06:45:09.251Z,13.63
2019-05-28T06:47:38.411Z,13.81
2019-05-28T06:50:10.215Z,13.82
2019-05-28T06:52:39.559Z,13.98
2019-05-28T06:55:09.364Z,14.02
2019-05-28T06:57:38.510Z,14.06
2019-05-28T07:00:08.713Z,13.93
2019-05-28T07:02:37.887Z,13.92
2019-05-28T07:05:07.301Z,13.86
2019-05-28T07:07:36.491Z,13.80
2019-05-28T07:10:06.728Z,13.91
2019-05-28T07:12:35.906Z,13.96
2019-05-28T07:15:06.944Z,13.94
2019-05-28T07:17:36.130Z,13.87
2019-05-28T07:20:09.275Z,13.91
2019-05-28T07:22:38.463Z,13.77
2019-05-28T07:25:08.064Z,13.71
2019-05-28T07:27:37.277Z,13.77
2019-05-28T07:30:08.532Z,13.81
2019-05-28T07:32:37.713Z,13.84
2019-05-28T07:35:07.377Z,13.66
2019-05-28T07:37:36.603Z,13.77
2019-05-28T07:40:07.849Z,13.48
2019-05-28T07:42:54.493Z,13.55
2019-05-28T07:45:23.756Z,13.40
2019-05-28T07:47:52.974Z,13.54
2019-05-28T07:50:22.211Z,13.33
2019-05-28T07:52:51.397Z,13.48
2019-05-28T07:55:20.570Z,13.37
2019-05-28T07:57:49.766Z,13.48
2019-05-28T08:00:22.023Z,13.45
2019-05-28T08:02:51.203Z,13.60
2019-05-28T08:05:20.389Z,13.61
2019-05-28T08:07:49.574Z,13.57
2019-05-28T08:10:18.995Z,13.62
2019-05-28T08:12:48.247Z,13.65
2019-05-28T08:15:17.509Z,13.48
2019-05-28T08:17:46.710Z,13.53
2019-05-28T08:20:18.483Z,13.46
2019-05-28T08:22:46.839Z,13.35
2019-05-28T08:25:33.402Z,13.42
2019-05-28T08:27:46.910Z,13.37
2019-05-28T08:30:34.097Z,13.56
2019-05-28T08:33:03.330Z,13.57
2019-05-28T08:35:32.576Z,13.53
2019-05-28T08:38:01.777Z,13.58
2019-05-28T08:40:31.004Z,13.61
2019-05-28T08:43:00.219Z,13.39
2019-05-28T08:45:29.383Z,13.51
2019-05-28T08:47:58.572Z,13.50
2019-05-28T08:50:34.241Z,13.45
2019-05-28T08:52:58.902Z,13.55
2019-05-28T08:55:28.176Z,13.46
2019-05-28T08:57:57.359Z,13.48
2019-05-28T09:00:44.060Z,13.54
2019-05-28T09:03:13.534Z,13.43
2019-05-28T09:05:42.780Z,13.39
2019-05-28T09:08:11.959Z,13.56
2019-05-28T09:10:41.145Z,13.40
2019-05-28T09:13:10.363Z,13.40
2019-05-28T09:15:39.538Z,13.54
2019-05-28T09:18:08.757Z,13.55
2019-05-28T09:20:38.284Z,13.55
2019-05-28T09:23:07.516Z,13.52
2019-05-28T09:25:36.720Z,13.54
2019-05-28T09:28:05.890Z,13.56
2019-05-28T09:30:35.070Z,13.51
2019-05-28T09:33:04.330Z,13.48
2019-05-28T09:35:44.279Z,13.39
2019-05-28T09:38:04.588Z,13.40
2019-05-28T09:40:49.106Z,13.42
2019-05-28T09:43:04.717Z,13.40
2019-05-28T09:45:33.964Z,13.50
2019-05-28T09:48:03.152Z,13.50
2019-05-28T09:50:32.351Z,13.37
2019-05-28T09:53:01.544Z,13.46
2019-05-28T09:55:30.784Z,13.36
2019-05-28T09:57:59.958Z,13.33
2019-05-28T10:00:30.048Z,13.39
2019-05-28T10:02:59.241Z,13.35
2019-05-28T10:05:28.453Z,13.38
2019-05-28T10:07:57.744Z,13.61
2019-05-28T10:10:26.952Z,13.62
2019-05-28T10:12:56.157Z,13.59
2019-05-28T10:15:25.324Z,13.56
2019-05-28T10:17:54.567Z,13.49
2019-05-28T10:20:24.426Z,13.55
2019-05-28T10:22:53.560Z,13.61
2019-05-28T10:25:23.078Z,13.64
2019-05-28T10:28:01.106Z,13.82
2019-05-28T10:30:24.579Z,13.71
2019-05-28T10:32:53.843Z,13.87
2019-05-28T10:35:23.655Z,13.74
2019-05-28T10:37:52.823Z,13.82
2019-05-28T10:40:22.382Z,13.68
2019-05-28T10:42:51.544Z,13.63
2019-05-28T10:45:21.388Z,13.75
2019-05-28T10:47:50.567Z,13.60
2019-05-28T10:50:20.582Z,13.63
2019-05-28T10:52:49.994Z,13.78
2019-05-28T10:55:19.295Z,13.78
2019-05-28T10:57:48.607Z,13.75
2019-05-28T11:00:18.542Z,13.86
2019-05-28T11:02:47.710Z,13.95
2019-05-28T11:05:17.734Z,14.05
2019-05-28T11:07:46.944Z,13.97
2019-05-28T11:10:24.353Z,13.96
2019-05-28T11:12:48.670Z,13.95
2019-05-28T11:15:18.692Z,13.94
2019-05-28T11:17:47.897Z,13.99
2019-05-28T11:20:17.804Z,13.94
2019-05-28T11:22:47.051Z,13.98
2019-05-28T11:25:18.085Z,14.06
2019-05-28T11:27:47.262Z,14.16
2019-05-28T11:30:17.268Z,14.21
2019-05-28T11:32:46.762Z,14.25
2019-05-28T11:35:17.610Z,14.20
2019-05-28T11:37:46.854Z,14.20
2019-05-28T11:40:17.867Z,14.35
2019-05-28T11:42:47.127Z,14.35
2019-05-28T11:45:17.884Z,14.48
2019-05-28T11:47:50.599Z,14.44
2019-05-28T11:50:18.956Z,14.50
2019-05-28T11:52:48.402Z,14.66
2019-05-28T11:55:18.363Z,14.68
2019-05-28T11:57:47.577Z,14.70
2019-05-28T12:00:17.778Z,14.87
2019-05-28T12:02:47.178Z,14.95
2019-05-28T12:05:16.796Z,15.04
2019-05-28T12:07:45.968Z,15.09
2019-05-28T12:10:15.531Z,14.93
2019-05-28T12:12:44.715Z,14.99
2019-05-28T12:15:18.423Z,15.05
2019-05-28T12:17:47.632Z,15.06
2019-05-28T12:20:19.722Z,15.06
2019-05-28T12:22:48.911Z,15.03
2019-05-28T12:25:19.941Z,15.06
2019-05-28T12:27:49.186Z,15.06
2019-05-28T12:30:19.230Z,15.10
2019-05-28T12:32:48.413Z,15.11
2019-05-28T12:35:28.410Z,15.16
2019-05-28T12:37:50.737Z,15.10
2019-05-28T12:40:20.952Z,15.14
2019-05-28T12:42:50.132Z,15.26
2019-05-28T12:45:34.279Z,15.31
2019-05-28T12:48:12.132Z,15.38
2019-05-28T12:50:24.125Z,15.39
2019-05-28T12:52:53.302Z,15.42
2019-05-28T12:55:23.118Z,15.43
2019-05-28T12:57:52.320Z,15.49
2019-05-28T13:00:22.297Z,15.52
2019-05-28T13:02:51.506Z,15.57
2019-05-28T13:05:23.905Z,15.56
2019-05-28T13:08:07.603Z,15.58
2019-05-28T13:10:24.952Z,15.64
2019-05-28T13:12:54.148Z,15.68
2019-05-28T13:15:23.587Z,15.70
2019-05-28T13:17:52.946Z,15.58
2019-05-28T13:20:22.174Z,15.48
2019-05-28T13:22:51.344Z,15.45
2019-05-28T13:25:20.793Z,15.30
2019-05-28T13:27:49.969Z,15.37
2019-05-28T13:30:19.509Z,15.35
2019-05-28T13:32:48.848Z,15.39
2019-05-28T13:35:19.974Z,15.49
2019-05-28T13:37:49.101Z,15.38
2019-05-28T13:40:21.314Z,15.27
2019-05-28T13:42:50.803Z,15.40
2019-05-28T13:45:20.344Z,15.48
2019-05-28T13:47:49.516Z,15.56
2019-05-28T13:50:19.259Z,15.65
2019-05-28T13:52:48.425Z,15.60
2019-05-28T13:55:17.960Z,15.55
2019-05-28T13:57:47.146Z,15.56
2019-05-28T14:00:18.929Z,15.52
2019-05-28T14:02:48.082Z,15.57
2019-05-28T14:05:18.397Z,15.58
2019-05-28T14:07:47.630Z,15.63
2019-05-28T14:10:17.425Z,15.61
2019-05-28T14:12:46.713Z,15.69
2019-05-28T14:15:16.597Z,15.81
2019-05-28T14:17:45.805Z,15.84
2019-05-28T14:20:15.970Z,15.75
2019-05-28T14:22:45.222Z,15.60
2019-05-28T14:25:14.790Z,15.64
2019-05-28T14:27:44.034Z,15.59
2019-05-28T14:30:16.317Z,15.55
2019-05-28T14:32:45.554Z,15.54
2019-05-28T14:35:15.036Z,15.60
2019-05-28T14:37:44.392Z,15.59
2019-05-28T14:40:15.024Z,15.51
2019-05-28T14:42:44.323Z,15.53
2019-05-28T14:45:16.011Z,15.58
2019-05-28T14:47:45.182Z,15.47
2019-05-28T14:50:16.439Z,15.51
2019-05-28T14:52:45.532Z,15.53
2019-05-28T14:55:16.158Z,15.53
2019-05-28T14:57:45.355Z,15.43
2019-05-28T15:00:17.538Z,15.34
2019-05-28T15:02:46.718Z,15.27
2019-05-28T15:05:16.092Z,15.28
2019-05-28T15:07:45.257Z,15.29
2019-05-28T15:10:16.480Z,15.42
2019-05-28T15:12:45.824Z,15.42
2019-05-28T15:15:33.960Z,15.29
2019-05-28T15:17:47.959Z,15.33
2019-05-28T15:20:17.767Z,15.34
2019-05-28T15:22:46.970Z,15.28
2019-05-28T15:25:17.493Z,15.29
2019-05-28T15:27:47.042Z,15.26
2019-05-28T15:30:16.776Z,15.24
2019-05-28T15:32:45.980Z,15.22
2019-05-28T15:35:15.534Z,15.26
2019-05-28T15:37:44.719Z,15.32
2019-05-28T15:40:14.237Z,15.31
2019-05-28T15:42:43.412Z,15.41
2019-05-28T15:45:13.670Z,15.44
2019-05-28T15:47:44.877Z,15.55
2019-05-28T15:50:14.525Z,15.76
2019-05-28T15:52:43.701Z,15.68
2019-05-28T15:55:13.264Z,15.75
2019-05-28T15:57:42.513Z,15.87
2019-05-28T16:00:24.057Z,15.90
2019-05-28T16:02:53.467Z,15.74
2019-05-28T16:05:22.661Z,15.66
2019-05-28T16:07:54.860Z,15.70
2019-05-28T16:10:24.038Z,15.68
2019-05-28T16:12:53.249Z,15.69
2019-05-28T16:15:22.568Z,15.61
2019-05-28T16:17:51.801Z,15.55
2019-05-28T16:20:21.098Z,15.49
2019-05-28T16:22:50.282Z,15.50
2019-05-28T16:25:19.527Z,15.65
2019-05-28T16:27:48.793Z,15.57
2019-05-28T16:30:18.597Z,15.60
2019-05-28T16:32:47.794Z,15.54
2019-05-28T16:35:21.282Z,15.66
2019-05-28T16:37:50.536Z,15.68
2019-05-28T16:40:20.254Z,15.68
2019-05-28T16:42:49.369Z,15.69
2019-05-28T16:45:20.815Z,15.54
2019-05-28T16:47:50.027Z,15.56
2019-05-28T16:50:20.051Z,15.59
2019-05-28T16:52:49.316Z,15.56
2019-05-28T16:55:19.323Z,15.58
2019-05-28T16:57:48.514Z,15.55
2019-05-28T17:00:18.927Z,15.45
2019-05-28T17:02:48.086Z,15.45
2019-05-28T17:05:17.542Z,15.52
2019-05-28T17:07:46.805Z,15.51
2019-05-28T17:10:31.485Z,15.42
2019-05-28T17:12:47.320Z,15.41
2019-05-28T17:15:17.260Z,15.26
2019-05-28T17:17:48.353Z,15.20
2019-05-28T17:20:18.962Z,15.18
2019-05-28T17:22:48.151Z,15.11
2019-05-28T17:25:18.283Z,15.12
2019-05-28T17:27:47.474Z,15.22
2019-05-28T17:30:22.781Z,15.25
2019-05-28T17:32:48.625Z,15.31
2019-05-28T17:35:18.900Z,15.31
2019-05-28T17:37:48.084Z,15.30
2019-05-28T17:40:21.798Z,15.26
2019-05-28T17:42:48.210Z,15.25
2019-05-28T17:45:18.743Z,15.21
2019-05-28T17:47:47.937Z,15.25
2019-05-28T17:50:17.406Z,15.13
2019-05-28T17:52:50.816Z,15.12
2019-05-28T17:55:17.571Z,15.04
2019-05-28T17:57:46.747Z,14.98
2019-05-28T18:00:18.008Z,14.95
2019-05-28T18:02:48.598Z,14.95
2019-05-28T18:05:18.387Z,14.86
2019-05-28T18:07:47.570Z,14.81
2019-05-28T18:10:18.273Z,14.86
2019-05-28T18:12:47.451Z,14.95
2019-05-28T18:15:20.006Z,14.95
2019-05-28T18:17:49.194Z,14.94
2019-05-28T18:20:18.539Z,14.89
2019-05-28T18:22:47.725Z,14.89
2019-05-28T18:25:20.327Z,14.88
2019-05-28T18:27:49.714Z,14.90
2019-05-28T18:30:19.086Z,14.86
2019-05-28T18:32:48.279Z,14.85
2019-05-28T18:35:17.535Z,14.84
2019-05-28T18:37:46.701Z,14.87
2019-05-28T18:40:22.485Z,14.78
2019-05-28T18:42:58.539Z,14.77
2019-05-28T18:45:34.860Z,14.81
2019-05-28T18:48:04.040Z,14.78
2019-05-28T18:50:33.219Z,14.59
2019-05-28T18:53:06.037Z,14.59
2019-05-28T18:55:35.212Z,14.51
2019-05-28T18:58:04.590Z,14.45
2019-05-28T19:00:33.943Z,14.51
2019-05-28T19:03:03.290Z,14.52
2019-05-28T19:05:33.564Z,14.50
2019-05-28T19:08:02.888Z,14.51
2019-05-28T19:10:32.188Z,14.56
2019-05-28T19:13:06.171Z,14.53
2019-05-28T19:15:35.275Z,14.56
2019-05-28T19:18:04.585Z,14.58
2019-05-28T19:20:33.762Z,14.48
2019-05-28T19:23:02.950Z,14.40
2019-05-28T19:25:33.099Z,14.36
2019-05-28T19:28:02.334Z,14.40
2019-05-28T19:30:35.164Z,14.39
2019-05-28T19:33:05.833Z,14.29
2019-05-28T19:35:35.078Z,14.27
2019-05-28T19:38:06.300Z,14.29
2019-05-28T19:40:38.382Z,14.27
2019-05-28T19:43:07.539Z,14.27
2019-05-28T19:45:37.373Z,14.18
2019-05-28T19:48:07.307Z,14.14
2019-05-28T19:50:37.719Z,14.02
2019-05-28T19:53:06.993Z,14.03
2019-05-28T19:55:36.221Z,14.03
2019-05-28T19:58:06.387Z,13.96
2019-05-28T20:00:35.708Z,13.90
2019-05-28T20:03:04.971Z,13.91
2019-05-28T20:05:34.149Z,13.93
2019-05-28T20:08:03.384Z,13.88
2019-05-28T20:10:32.657Z,13.81
2019-05-28T20:13:01.851Z,13.71
2019-05-28T20:15:31.143Z,13.69
2019-05-28T20:18:00.388Z,13.71
2019-05-28T20:20:29.618Z,13.76
2019-05-28T20:22:58.791Z,13.60
2019-05-28T20:25:27.996Z,13.59
2019-05-28T20:27:57.197Z,13.62
2019-05-28T20:30:26.422Z,13.63
2019-05-28T20:32:55.707Z,13.62
2019-05-28T20:35:24.979Z,13.67
2019-05-28T20:37:54.144Z,13.72
2019-05-28T20:40:23.483Z,13.68
2019-05-28T20:42:52.667Z,13.64
2019-05-28T20:45:21.995Z,13.61
2019-05-28T20:47:51.322Z,13.53
2019-05-28T20:50:20.444Z,13.58
2019-05-28T20:52:49.651Z,13.58
2019-05-28T20:55:19.169Z,13.58
2019-05-28T20:57:49.166Z,13.57
2019-05-28T21:00:18.995Z,13.58
2019-05-28T21:02:48.189Z,13.56
2019-05-28T21:05:18.858Z,13.62
2019-05-28T21:07:50.091Z,13.53
2019-05-28T21:10:19.424Z,13.46
2019-05-28T21:12:50.693Z,13.55
2019-05-28T21:15:20.048Z,13.50
2019-05-28T21:17:51.128Z,13.50
2019-05-28T21:20:20.610Z,13.35
2019-05-28T21:22:51.856Z,13.42
2019-05-28T21:25:21.003Z,13.48
2019-05-28T21:27:50.175Z,13.51
2019-05-28T21:30:19.705Z,13.47
2019-05-28T21:32:48.910Z,13.36
2019-05-28T21:35:18.099Z,13.42
2019-05-28T21:37:47.189Z,13.40
2019-05-28T21:40:16.639Z,13.34
2019-05-28T21:42:58.560Z,13.33
2019-05-28T21:45:17.052Z,13.36
2019-05-28T21:47:46.246Z,13.35
2019-05-28T21:50:15.554Z,13.28
2019-05-28T21:52:44.802Z,13.29
2019-05-28T21:55:14.541Z,13.21
2019-05-28T21:57:43.704Z,13.24
2019-05-28T22:00:19.261Z,13.16
2019-05-28T22:02:48.432Z,13.06
2019-05-28T22:05:17.675Z,13.01
2019-05-28T22:07:46.895Z,13.01
2019-05-28T22:10:16.217Z,13.02
2019-05-28T22:12:45.432Z,13.00
2019-05-28T22:15:16.277Z,12.96
2019-05-28T22:17:45.456Z,13.06
2019-05-28T22:20:14.810Z,13.09
2019-05-28T22:22:43.981Z,13.06
2019-05-28T22:25:13.240Z,13.04
2019-05-28T22:27:42.424Z,12.97
2019-05-28T22:30:11.964Z,12.90
2019-05-28T22:32:41.153Z,12.86
2019-05-28T22:35:10.782Z,12.83
2019-05-28T22:37:40.032Z,12.81
2019-05-28T22:40:10.388Z,12.90
2019-05-28T22:42:39.595Z,12.90
2019-05-28T22:45:09.108Z,12.84
2019-05-28T22:47:38.288Z,12.81
2019-05-28T22:50:22.128Z,12.89
2019-05-28T22:52:41.738Z,12.79
2019-05-28T22:55:11.148Z,12.78
2019-05-28T22:57:40.395Z,12.63
2019-05-28T23:00:10.492Z,12.76
2019-05-28T23:02:39.669Z,12.61
2019-05-28T23:05:09.340Z,12.60
2019-05-28T23:07:38.551Z,12.51
2019-05-28T23:10:08.380Z,12.57
2019-05-28T23:12:39.070Z,12.52
2019-05-28T23:15:10.493Z,12.44
2019-05-28T23:17:39.743Z,12.41
2019-05-28T23:20:11.252Z,12.42
2019-05-28T23:22:40.606Z,12.48
2019-05-28T23:25:11.700Z,12.33
2019-05-28T23:27:40.986Z,12.31
2019-05-28T23:30:23.316Z,12.39
2019-05-28T23:32:43.103Z,12.38
2019-05-28T23:35:12.792Z,12.50
2019-05-28T23:37:42.005Z,12.41
2019-05-28T23:40:11.544Z,12.29
2019-05-28T23:42:41.669Z,12.32
2019-05-28T23:45:11.857Z,12.33
2019-05-28T23:47:41.041Z,12.30
2019-05-28T23:50:15.826Z,12.26
2019-05-28T23:52:41.771Z,12.26
2019-05-28T23:55:11.799Z,12.27
2019-05-28T23:57:41.109Z,12.14
